Time;durP1;ratioP1;P1;durP2;ratioP2;P2;SDS_P1;SDS_P2;PMS_P1;PMS_P2;Temp;Humidity;BMP_temperature;BMP_pressure;BME280_temperature;BME280_humidity;BME280_pressure;Samples;Min_cycle;Max_cycle;Signal;HPM_P1;HPM_P2
2022/06/16 00:00:01;;;;;;;;;;;19.80;99.90;;;18.78;78.86;95633.81;10475553;28;1846;-73
2022/06/16 00:05:04;;;;;;;;;;;19.70;99.90;;;18.74;78.86;95632.88;10473623;28;1989;-73
2022/06/16 00:10:08;;;;;;;;;;;19.60;99.90;;;18.80;78.50;95626.09;10470900;28;1847;-73
2022/06/16 00:15:11;;;;;;;;;;;19.50;99.90;;;18.72;78.42;95643.31;10470363;28;1817;-71
2022/06/16 00:20:14;;;;;;;;;;;19.50;99.90;;;18.64;79.25;95625.06;10469826;28;1832;-73
2022/06/16 00:25:17;;;;;;;;;;;19.50;99.90;;;18.54;79.10;95628.16;10471607;28;1918;-74
2022/06/16 00:30:20;;;;;;;;;;;;;;;18.45;79.78;95632.81;10471914;28;1764;-73
2022/06/16 00:35:24;;;;;;;;;;;;;;;18.44;79.05;95634.75;10471197;28;1800;-73
2022/06/16 00:40:27;;;;;;;;;;;;;;;18.43;79.57;95630.44;10471068;28;1992;-72
2022/06/16 00:45:30;;;;;;;;;;;;;;;18.42;79.36;95636.19;10478603;28;2266;-72
2022/06/16 00:50:34;;;;;;;;;;;;;;;18.41;79.29;95634.59;10499464;28;2035;-73
2022/06/16 00:55:38;;;;;;;;;;;;;;;18.40;79.75;95641.97;10471804;28;1926;-72
2022/06/16 01:00:45;;;;;;;;;;;;;;;18.32;79.71;95638.19;10473192;28;1822;-72
2022/06/16 01:05:49;;;;;;;;;;;;;;;18.25;79.46;95637.84;10468357;28;2151;-71
2022/06/16 01:10:54;;;;;;;;;;;;;;;18.24;80.68;95630.81;10465184;28;1930;-71
2022/06/16 01:16:00;;;;;;;;;;;;;;;18.26;80.61;95634.03;10467509;28;1826;-72
2022/06/16 01:21:05;;;;;;;;;;;;;;;18.20;80.57;95624.44;10475312;28;1930;-75
2022/06/16 01:26:10;;;;;;;;;;;;;;;18.09;80.37;95626.72;10478805;28;1910;-71
2022/06/16 01:31:16;;;;;;;;;;;;;;;17.90;81.88;95631.72;10475872;28;1867;-74
2022/06/16 01:36:21;;;;;;;;;;;;;;;17.74;81.72;95620.56;10478428;28;1916;-72
2022/06/16 01:41:25;;;;;;;;;;;;;;;17.68;83.18;95629.16;10476092;28;1981;-71
2022/06/16 01:46:29;;;;;;;;;;;19.60;99.90;;;17.60;83.24;95638.94;10476388;28;1954;-73
2022/06/16 01:51:32;;;;;;;;;;;18.60;99.90;;;18.07;81.78;95628.97;10478957;28;1907;-75
2022/06/16 01:56:35;;;;;;;;;;;18.80;99.90;;;18.46;79.36;95626.28;10478290;28;2021;-75
2022/06/16 02:01:39;;;;;;;;;;;19.20;99.90;;;18.64;78.56;95617.69;10480988;28;2010;-76
2022/06/16 02:06:43;;;;;;;;;;;19.10;99.90;;;19.02;75.29;95616.84;10481612;28;2038;-75
2022/06/16 02:11:46;;;;;;;;;;;19.40;99.90;;;19.02;74.78;95611.41;10480786;28;1944;-76
2022/06/16 02:16:49;;;;;;;;;;;19.70;99.90;;;18.61;75.23;95601.19;10480617;28;1987;-77
2022/06/16 02:21:52;;;;;;;;;;;19.60;99.90;;;18.63;75.66;95607.09;10493594;28;1896;-76
2022/06/16 02:26:55;;;;;;;;;;;19.40;99.90;;;18.62;75.82;95613.69;10483097;28;2229;-76
2022/06/16 02:31:58;;;;;;;;;;;19.40;99.90;;;18.36;76.41;95609.16;10477712;28;1958;-77
2022/06/16 02:37:01;;;;;;;;;;;19.30;99.90;;;18.23;77.46;95618.34;10477352;28;1926;-76
2022/06/16 02:42:04;;;;;;;;;;;19.10;99.90;;;18.25;77.11;95607.94;10475262;28;1939;-76
2022/06/16 02:47:11;;;;;;;;;;;19.00;99.90;;;18.08;78.98;95605.28;10471578;28;1973;-75
2022/06/16 02:52:14;;;;;;;;;;;19.00;99.90;;;18.04;79.38;95609.78;10483277;28;1908;-75
2022/06/16 02:57:17;;;;;;;;;;;18.90;99.90;;;17.98;79.70;95611.06;10471068;28;2059;-75
2022/06/16 03:02:20;;;;;;;;;;;18.80;99.90;;;18.27;78.60;95602.97;10476118;28;1856;-74
2022/06/16 03:07:24;;;;;;;;;;;18.80;99.90;;;18.16;78.97;95585.41;10479269;28;1955;-75
2022/06/16 03:12:27;;;;;;;;;;;18.90;99.90;;;18.23;77.41;95582.19;10471805;28;1907;-76
2022/06/16 03:17:31;;;;;;;;;;;18.90;99.90;;;18.45;76.83;95573.75;10476847;28;1981;-76
2022/06/16 03:22:35;;;;;;;;;;;19.00;99.90;;;18.41;77.42;95580.19;10479502;28;1989;-76
2022/06/16 03:27:38;;;;;;;;;;;19.10;99.90;;;18.53;75.91;95583.00;10495245;28;1909;-75
2022/06/16 03:32:40;;;;;;;;;;;19.20;99.90;;;18.50;75.97;95597.25;10472477;28;2018;-76
2022/06/16 03:37:44;;;;;;;;;;;19.20;99.90;;;18.69;75.07;95597.66;10482348;28;1602;-76
2022/06/16 03:42:47;;;;;;;;;;;19.30;99.90;;;18.52;75.16;95598.53;10471911;28;1547;-76
2022/06/16 03:47:51;;;;;;;;;;;19.40;99.90;;;18.52;76.75;95600.47;10475314;28;1918;-76
2022/06/16 03:52:54;;;;;;;;;;;19.30;99.90;;;19.03;73.50;95604.81;10479479;28;1963;-75
2022/06/16 03:57:57;;;;;;;;;;;19.40;99.90;;;19.15;72.55;95598.66;10487436;28;2004;-75
2022/06/16 04:08:21;;;;;;;;;;;19.80;99.90;;;19.79;70.32;95603.72;10476100;28;1995;-76
2022/06/16 04:13:24;;;;;;;;;;;20.10;99.90;;;20.30;66.80;95604.28;10471605;28;1448;-76
2022/06/16 04:18:27;;;;;;;;;;;20.40;99.90;;;20.32;66.32;95612.91;10475083;28;1943;-77
2022/06/16 04:23:30;;;;;;;;;;;20.80;99.90;;;20.58;65.75;95617.28;10472251;28;2069;-76
2022/06/16 04:28:32;;;;;;;;;;;20.90;99.90;;;20.91;64.19;95600.75;10477327;28;2085;-76
2022/06/16 04:33:36;;;;;;;;;;;21.30;99.90;;;20.72;65.05;95615.00;10470341;28;1943;-79
2022/06/16 04:38:40;;;;;;;;;;;21.30;99.90;;;20.47;66.99;95603.28;10472280;28;2026;-76
2022/06/16 04:43:43;;;;;;;;;;;21.30;99.90;;;20.13;68.61;95599.03;10472156;28;2077;-74
2022/06/16 04:48:47;;;;;;;;;;;21.00;99.90;;;20.28;68.70;95603.81;10471204;28;1951;-76
2022/06/16 04:53:50;;;;;;;;;;;20.90;99.90;;;20.71;66.10;95603.28;10477163;28;2013;-76
2022/06/16 04:58:53;;;;;;;;;;;21.20;99.90;;;21.35;62.13;95601.72;10525634;28;1883;-75
2022/06/16 05:03:56;;;;;;;;;;;21.60;99.90;;;21.40;62.05;95601.47;10524983;28;1924;-75
2022/06/16 05:09:00;;;;;;;;;;;21.90;99.90;;;21.67;60.75;95615.50;10480046;28;2117;-74
2022/06/16 05:14:05;;;;;;;;;;;22.10;99.90;;;21.69;60.81;95608.53;10491129;28;1875;-77
2022/06/16 05:19:08;;;;;;;;;;;22.20;99.90;;;21.85;61.15;95616.81;10489677;28;1962;-77
2022/06/16 05:24:11;;;;;;;;;;;22.20;99.90;;;22.37;57.38;95621.31;10479559;28;1934;-77
2022/06/16 05:29:15;;;;;;;;;;;22.60;99.90;;;22.53;57.44;95613.91;10488734;28;1973;-76
2022/06/16 05:34:19;;;;;;;;;;;22.90;99.90;;;22.83;55.88;95630.66;10489921;28;2041;-76
2022/06/16 05:39:30;;;;;;;;;;;23.20;99.90;;;22.96;54.94;95628.63;10486627;28;2071;-76
2022/06/16 05:44:35;;;;;;;;;;;23.30;99.90;;;23.26;54.34;95630.88;10486814;28;1962;-76
2022/06/16 05:49:40;;;;;;;;;;;23.60;99.90;;;23.83;51.94;95640.34;10487967;28;1880;-76
2022/06/16 05:54:45;;;;;;;;;;;24.00;99.90;;;24.04;51.59;95638.00;10486817;28;2101;-76
2022/06/16 05:59:48;;;;;;;;;;;;;;;24.15;49.62;95655.47;10500383;28;1908;-76
2022/06/16 06:04:52;;;;;;;;;;;24.70;99.90;;;24.64;48.70;95651.28;10484359;28;1973;-75
2022/06/16 06:20:54;;;;;;;;;;;25.30;99.90;;;24.54;49.15;95655.41;10475910;28;1911;-75
2022/06/16 06:25:57;;;;;;;;;;;25.20;99.90;;;24.86;49.11;95652.41;10477824;28;2009;-75
2022/06/16 06:31:00;;;;;;;;;;;25.20;99.90;;;25.72;46.68;95659.97;10477234;28;1995;-75
2022/06/16 06:36:03;;;;;;;;;;;25.70;99.90;;;25.09;48.71;95666.16;10481563;28;1987;-74
2022/06/16 06:41:06;;;;;;;;;;;25.80;99.90;;;24.90;48.42;95653.28;10489842;28;2028;-74
2022/06/16 06:46:09;;;;;;;;;;;25.40;99.90;;;25.39;46.47;95634.00;10467567;28;1963;-74
2022/06/16 06:51:12;;;;;;;;;;;25.70;99.90;;;25.33;46.86;95661.03;10479651;28;2026;-74
2022/06/16 06:56:15;;;;;;;;;;;25.70;99.90;;;25.13;49.00;95654.06;10480137;28;2057;-74
2022/06/16 07:01:18;;;;;;;;;;;25.50;99.90;;;25.19;48.84;95671.03;10470439;28;1966;-75
2022/06/16 07:06:41;;;;;;;;;;;25.50;99.90;;;25.25;49.06;95678.59;10486397;28;2104;-75
2022/06/16 07:11:50;;;;;;;;;;;25.50;99.90;;;24.89;50.41;95690.19;10474316;28;1946;-74
2022/06/16 07:16:59;;;;;;;;;;;25.40;99.90;;;24.43;52.55;95690.16;10470758;28;2036;-77
2022/06/16 07:22:05;;;;;;;;;;;25.00;99.90;;;24.49;53.33;95699.69;10479918;28;1789;-75
2022/06/16 07:27:08;;;;;;;;;;;25.00;99.90;;;24.59;54.23;95682.59;10487790;28;1946;-75
2022/06/16 07:32:10;;;;;;;;;;;25.00;99.90;;;23.97;56.55;95690.81;10474527;28;1883;-76
2022/06/16 07:37:14;;;;;;;;;;;24.80;99.90;;;23.73;60.81;95669.97;10470521;28;1983;-77
2022/06/16 07:42:17;;;;;;;;;;;24.50;99.90;;;23.33;61.07;95669.44;10476111;28;1882;-76
2022/06/16 07:47:20;;;;;;;;;;;24.00;99.90;;;23.54;62.69;95661.69;10479875;28;1994;-77
2022/06/16 07:52:23;;;;;;;;;;;24.10;99.90;;;23.81;61.65;95661.88;10476780;28;1884;-77
2022/06/16 07:57:27;;;;;;;;;;;24.20;99.90;;;24.48;57.99;95665.91;10471675;28;1869;-77
2022/06/16 08:02:31;;;;;;;;;;;24.50;99.90;;;25.53;55.64;95641.66;10479789;28;1804;-77
2022/06/16 08:07:34;;;;;;;;;;;25.40;99.90;;;25.73;53.45;95640.34;10475280;28;1983;-76
2022/06/16 08:12:37;;;;;;;;;;;26.10;99.90;;;25.51;54.07;95660.47;10479236;28;1866;-75
2022/06/16 08:17:39;;;;;;;;;;;26.20;99.90;;;26.10;51.36;95670.72;10479658;28;1868;-75
2022/06/16 08:22:43;;;;;;;;;;;26.40;99.90;;;27.07;48.07;95666.16;10473255;28;1832;-75
2022/06/16 08:27:46;;;;;;;;;;;27.00;99.90;;;26.51;50.05;95675.50;10464305;28;1914;-75
2022/06/16 08:32:48;;;;;;;;;;;27.00;99.90;;;26.68;47.54;95683.16;10473068;28;1822;-76
2022/06/16 08:37:51;;;;;;;;;;;27.10;99.90;;;27.27;45.15;95708.09;10476577;28;1826;-76
2022/06/16 08:42:54;;;;;;;;;;;27.40;99.90;;;26.78;46.54;95721.03;10472554;28;1819;-74
2022/06/16 08:47:57;;;;;;;;;;;27.30;99.90;;;26.38;47.53;95733.59;10477514;28;1918;-73
2022/06/16 08:53:00;;;;;;;;;;;26.90;99.90;;;26.16;48.64;95719.97;10483001;28;1832;-75
2022/06/16 08:58:05;;;;;;;;;;;26.70;99.90;;;26.27;49.62;95713.38;10476715;28;1920;-74
2022/06/16 09:03:07;;;;;;;;;;;26.70;99.90;;;26.60;50.17;95707.09;10475870;28;1507;-74
2022/06/16 09:08:12;;;;;;;;;;;27.10;99.90;;;27.27;48.24;95713.63;10471573;28;2263;-75
2022/06/16 09:13:16;;;;;;;;;;;27.50;99.90;;;27.36;47.00;95712.13;10508997;28;2002;-74
2022/06/16 09:18:18;;;;;;;;;;;27.80;99.90;;;26.86;47.97;95711.69;10495217;28;1819;-76
2022/06/16 09:23:22;;;;;;;;;;;27.80;99.90;;;26.81;48.39;95719.50;10473310;28;1771;-76
2022/06/16 09:28:25;;;;;;;;;;;27.30;99.90;;;27.03;46.48;95723.22;10473428;28;1967;-76
2022/06/16 09:33:28;;;;;;;;;;;27.50;99.90;;;26.83;46.77;95731.72;10475147;28;2006;-76
2022/06/16 09:38:30;;;;;;;;;;;27.40;99.90;;;27.11;47.42;95735.97;10477185;28;1918;-74
2022/06/16 09:43:34;;;;;;;;;;;27.60;99.90;;;28.07;43.96;95727.56;10471959;28;1933;-72
2022/06/16 09:48:37;;;;;;;;;;;28.20;99.90;;;27.67;44.35;95732.81;10482787;28;1968;-74
2022/06/16 09:53:41;;;;;;;;;;;28.30;99.90;;;27.68;44.20;95741.91;10480676;28;1820;-73
2022/06/16 09:58:45;;;;;;;;;;;28.20;99.90;;;27.83;42.65;95745.56;10479805;28;1852;-75
2022/06/16 10:03:48;;;;;;;;;;;;;;;28.63;42.22;95748.28;10470632;28;1778;-74
2022/06/16 10:08:52;;;;;;;;;;;;;;;29.33;40.64;95750.41;10479093;28;1933;-75
2022/06/16 10:13:55;;;;;;;;;;;;;;;29.15;41.22;95757.13;10471557;28;2126;-75
2022/06/16 10:18:58;;;;;;;;;;;;;;;29.33;39.24;95760.72;10473604;28;1816;-75
2022/06/16 10:24:07;;;;;;;;;;;;;;;29.11;40.55;95761.88;10477576;28;1840;-75
2022/06/16 10:29:11;;;;;;;;;;;;;;;28.17;42.54;95757.19;10495049;28;1917;-76
2022/06/16 10:34:14;;;;;;;;;;;;;;;27.05;44.48;95770.56;10477541;28;1735;-76
2022/06/16 10:39:18;;;;;;;;;;;;;;;25.31;63.04;95794.63;10476704;28;1872;-75
2022/06/16 10:44:21;;;;;;;;;;;;;;;24.94;63.87;95786.09;10475124;28;1886;-75
2022/06/16 10:49:25;;;;;;;;;;;;;;;25.59;56.67;95788.78;10482063;28;1921;-77
2022/06/16 10:54:29;;;;;;;;;;;;;;;26.50;52.65;95781.41;10475997;28;1962;-74
2022/06/16 10:59:32;;;;;;;;;;;;;;;27.95;45.70;95776.44;10473224;28;1842;-73
2022/06/16 11:04:35;;;;;;;;;;;;;;;28.92;42.08;95771.31;10479290;28;1932;-74
2022/06/16 11:09:39;;;;;;;;;;;;;;;29.93;39.57;95767.41;10479983;28;1926;-76
2022/06/16 11:14:42;;;;;;;;;;;;;;;29.74;42.42;95761.09;10473992;28;1863;-75
2022/06/16 11:19:45;;;;;;;;;;;31.60;99.90;;;29.84;41.32;95768.59;10472343;28;1890;-76
2022/06/16 11:24:48;;;;;;;;;;;31.80;99.90;;;30.37;38.88;95766.91;10476889;28;1797;-76
2022/06/16 11:29:50;;;;;;;;;;;32.50;99.90;;;29.91;38.92;95756.72;10477920;28;1970;-77
2022/06/16 11:34:53;;;;;;;;;;;31.90;91.60;;;29.20;39.79;95753.94;10475720;28;1886;-74
2022/06/16 11:39:56;;;;;;;;;;;30.90;92.40;;;27.90;40.38;95767.72;10473419;28;1832;-76
2022/06/16 11:44:59;;;;;;;;;;;29.60;91.80;;;28.15;39.08;95763.09;10476509;28;1817;-76
2022/06/16 11:50:02;;;;;;;;;;;29.00;97.10;;;28.29;37.81;95767.91;10474677;28;2011;-74
2022/06/16 11:55:05;;;;;;;;;;;29.10;90.90;;;28.76;37.83;95758.63;10474916;28;1843;-74
2022/06/16 12:00:07;;;;;;;;;;;29.20;99.90;;;28.85;38.01;95738.88;10476763;28;1931;-76
2022/06/16 12:05:10;;;;;;;;;;;29.60;93.20;;;28.52;37.82;95751.84;10473023;28;1771;-75
2022/06/16 12:10:13;;;;;;;;;;;29.40;89.90;;;28.27;37.51;95743.44;10470789;28;2024;-75
2022/06/16 12:15:17;;;;;;;;;;;29.20;99.90;;;28.54;39.34;95732.09;10473860;28;1721;-75
2022/06/16 12:20:20;;;;;;;;;;;29.20;99.90;;;28.08;38.94;95737.41;10471730;28;1829;-76
2022/06/16 12:25:40;;;;;;;;;;;29.10;99.90;;;27.99;39.38;95730.28;10482683;28;1862;-73
2022/06/16 12:30:43;;;;;;;;;;;28.90;99.90;;;28.22;38.10;95743.00;10467835;28;1906;-74
2022/06/16 12:35:46;;;;;;;;;;;;;;;27.73;38.96;95736.81;10472376;28;1761;-73
2022/06/16 12:40:49;;;;;;;;;;;;;;;28.51;37.99;95741.97;10470066;28;2045;-74
2022/06/16 12:45:53;;;;;;;;;;;;;;;28.64;37.88;95738.84;10475353;28;1533;-75
2022/06/16 12:50:56;;;;;;;;;;;30.70;99.90;;;28.59;35.51;95741.97;10472064;28;1973;-75
2022/06/16 12:55:59;;;;;;;;;;;29.50;87.70;;;28.80;33.34;95737.28;10478110;28;1796;-74
2022/06/16 13:01:02;;;;;;;;;;;;;;;28.76;32.80;95749.53;10474064;28;1879;-77
2022/06/16 13:06:06;;;;;;;;;;;31.30;99.90;;;29.28;32.79;95736.97;10470529;28;1825;-74
2022/06/16 13:11:09;;;;;;;;;;;29.90;83.30;;;29.07;31.52;95751.59;10477596;28;1914;-74
2022/06/16 13:16:12;;;;;;;;;;;29.90;80.80;;;29.00;30.06;95761.84;10475643;28;1892;-74
2022/06/16 13:21:16;;;;;;;;;;;29.90;78.90;;;28.86;29.97;95746.00;10491438;28;2135;-74
2022/06/16 13:26:18;;;;;;;;;;;29.80;78.40;;;29.35;30.11;95744.47;10494844;28;1926;-73
2022/06/16 13:31:23;;;;;;;;;;;30.00;80.00;;;29.60;29.44;95739.75;10525744;28;1940;-74
2022/06/16 13:36:26;;;;;;;;;;;30.30;78.70;;;29.43;29.40;95748.81;10484315;28;1838;-74
2022/06/16 13:41:30;;;;;;;;;;;30.50;77.70;;;29.09;29.67;95753.97;10475900;28;1870;-73
2022/06/16 13:46:33;;;;;;;;;;;30.10;77.70;;;28.44;30.68;95741.13;10478127;28;1918;-73
2022/06/16 13:51:37;;;;;;;;;;;29.40;77.80;;;28.58;30.44;95734.88;10484601;28;1933;-75
2022/06/16 13:56:40;;;;;;;;;;;29.20;78.50;;;29.18;31.05;95725.88;10468424;28;1805;-74
2022/06/16 14:01:43;;;;;;;;;;;29.70;79.70;;;30.04;30.61;95724.59;10477241;28;1822;-74
2022/06/16 14:06:46;;;;;;;;;;;30.40;79.60;;;30.09;29.98;95724.19;10485156;28;1933;-75
2022/06/16 14:11:56;;;;;;;;;;;30.70;78.30;;;29.80;29.44;95726.25;10477182;28;1824;-74
2022/06/16 14:17:00;;;;;;;;;;;30.60;77.50;;;29.30;30.61;95725.50;10477779;28;1839;-73
2022/06/16 14:22:03;;;;;;;;;;;30.20;78.10;;;29.66;30.97;95736.59;10483214;28;1810;-74
2022/06/16 14:27:06;;;;;;;;;;;30.10;79.10;;;29.95;29.49;95726.22;10483269;28;1918;-74
2022/06/16 14:32:08;;;;;;;;;;;30.60;77.80;;;29.78;30.39;95727.84;10481354;28;1776;-75
2022/06/16 14:37:13;;;;;;;;;;;30.60;77.70;;;29.51;30.00;95731.03;10483355;28;1845;-74
2022/06/16 14:42:17;;;;;;;;;;;30.30;77.60;;;29.77;29.64;95737.31;10469550;28;1833;-74
2022/06/16 14:47:20;;;;;;;;;;;30.50;76.80;;;30.08;29.35;95736.44;10484118;28;1909;-74
2022/06/16 14:52:24;;;;;;;;;;;30.80;76.30;;;30.09;28.10;95732.50;10483337;28;1911;-74
2022/06/16 14:57:27;;;;;;;;;;;30.80;75.10;;;29.93;27.06;95732.16;10476351;28;1880;-75
2022/06/16 15:02:30;;;;;;;;;;;30.40;73.80;;;29.29;29.96;95759.91;10475701;28;1854;-73
2022/06/16 15:07:33;;;;;;;;;;;30.40;78.30;;;28.90;29.54;95751.53;10480746;28;1914;-74
2022/06/16 15:12:36;;;;;;;;;;;29.80;82.90;;;28.98;29.42;95753.94;10470573;28;1876;-76
2022/06/16 15:22:59;;;;;;;;;;;29.60;78.60;;;28.93;28.70;95757.09;10477514;28;1804;-75
2022/06/16 15:28:09;;;;;;;;;;;29.60;77.90;;;29.01;28.15;95755.94;10479814;28;1942;-74
2022/06/16 15:38:55;;;;;;;;;;;29.80;78.50;;;28.94;27.40;95750.38;10400013;28;2160;-73
2022/06/16 15:43:58;;;;;;;;;;;29.80;77.50;;;28.84;26.82;95764.97;10452391;28;2151;-75
2022/06/16 15:49:02;;;;;;;;;;;29.70;76.10;;;28.84;27.60;95753.91;10468451;28;1981;-75
2022/06/16 15:54:05;;;;;;;;;;;29.60;77.20;;;29.11;27.01;95751.59;10472176;28;1962;-74
2022/06/16 15:59:08;;;;;;;;;;;29.60;77.00;;;29.14;26.87;95752.75;10482685;28;1886;-74
2022/06/16 16:04:11;;;;;;;;;;;29.60;77.20;;;28.80;28.21;95764.16;10475036;28;1998;-75
2022/06/16 16:09:14;;;;;;;;;;;29.60;78.60;;;28.06;28.39;95764.63;10473136;28;2105;-74
2022/06/16 16:14:17;;;;;;;;;;;29.10;78.90;;;28.02;29.07;95748.84;10471137;28;1970;-74
2022/06/16 16:19:20;;;;;;;;;;;28.80;80.20;;;27.87;30.72;95771.25;10466979;28;1953;-74
2022/06/16 16:24:27;;;;;;;;;;;28.60;84.50;;;27.72;32.39;95773.13;10471949;28;2271;-74
2022/06/16 16:29:30;;;;;;;;;;;28.00;99.90;;;27.88;32.47;95781.91;10469227;28;2386;-74
2022/06/16 16:34:33;;;;;;;;;;;28.50;81.30;;;27.65;32.80;95786.84;10476363;28;1942;-75
2022/06/16 16:39:36;;;;;;;;;;;28.30;83.20;;;27.33;32.26;95792.91;10468537;28;2041;-74
2022/06/16 16:44:39;;;;;;;;;;;28.20;78.00;;;27.29;31.91;95789.31;10468406;28;1937;-76
2022/06/16 16:49:43;;;;;;;;;;;28.00;78.80;;;27.01;32.83;95802.84;10464031;28;1978;-75
2022/06/16 16:54:50;;;;;;;;;;;27.80;79.00;;;26.76;33.20;95795.09;10469675;28;2068;-72
2022/06/16 16:59:53;;;;;;;;;;;27.60;79.70;;;26.56;34.14;95805.50;10470928;28;1876;-74
2022/06/16 17:04:55;;;;;;;;;;;27.40;80.50;;;26.45;34.48;95815.59;10482470;28;1940;-74
2022/06/16 17:09:59;;;;;;;;;;;27.20;81.40;;;26.39;34.07;95817.84;10464969;28;2029;-75
2022/06/16 17:15:02;;;;;;;;;;;27.10;81.60;;;26.20;33.82;95806.97;10468366;28;2014;-75
2022/06/16 17:20:06;;;;;;;;;;;26.90;80.70;;;26.36;33.61;95834.38;10466366;28;1928;-77
2022/06/16 17:25:11;;;;;;;;;;;27.00;81.20;;;26.36;33.65;95818.63;10465595;28;1736;-76
2022/06/16 17:30:15;;;;;;;;;;;26.90;80.80;;;26.23;34.12;95822.00;10468586;28;2075;-75
2022/06/16 17:35:19;;;;;;;;;;;26.90;81.20;;;26.11;34.63;95825.75;10475214;28;1748;-76
2022/06/16 17:40:23;;;;;;;;;;;26.80;81.70;;;25.97;34.92;95837.38;10480141;28;1692;-75
2022/06/16 17:45:26;;;;;;;;;;;26.70;81.70;;;25.87;35.04;95838.78;10503321;28;1896;-75
2022/06/16 17:50:29;;;;;;;;;;;26.50;79.10;;;25.61;35.85;95842.28;10463608;28;1987;-75
2022/06/16 18:00:53;;;;;;;;;;;26.30;80.20;;;25.36;36.19;95856.81;10473691;28;1527;-77
2022/06/16 18:05:56;;;;;;;;;;;26.20;80.50;;;25.25;37.01;95862.91;10479417;28;1519;-77
2022/06/16 18:10:59;;;;;;;;;;;26.00;81.30;;;25.16;36.73;95870.59;10476956;28;1999;-76
2022/06/16 18:16:02;;;;;;;;;;;26.00;81.40;;;25.03;37.26;95866.41;10479513;28;1570;-77
2022/06/16 18:21:07;;;;;;;;;;;25.90;81.50;;;24.91;37.61;95866.56;10479622;28;1963;-76
2022/06/16 18:26:10;;;;;;;;;;;25.70;81.90;;;24.79;37.93;95879.28;10480637;28;2010;-75
2022/06/16 18:31:13;;;;;;;;;;;25.50;82.10;;;24.63;37.86;95877.81;10476306;28;2010;-79
2022/06/16 18:36:16;;;;;;;;;;;25.40;82.30;;;24.48;38.65;95882.97;10480588;28;2047;-77
2022/06/16 18:41:20;;;;;;;;;;;25.30;82.90;;;24.33;38.87;95889.31;10477309;28;2059;-78
2022/06/16 18:46:24;;;;;;;;;;;25.20;83.30;;;24.21;39.10;95898.47;10482749;28;2007;-79
2022/06/16 18:51:27;;;;;;;;;;;25.00;83.50;;;23.93;39.70;95898.63;10484937;28;1956;-77
2022/06/16 18:56:30;;;;;;;;;;;24.80;84.10;;;23.83;40.09;95893.66;10481628;28;1974;-76
2022/06/16 19:01:34;;;;;;;;;;;;;;;23.61;40.49;95905.25;10479006;28;2006;-73
2022/06/16 19:06:37;;;;;;;;;;;;;;;23.42;41.18;95908.69;10484362;28;2075;-74
2022/06/16 19:16:57;;;;;;;;;;;24.20;86.00;;;22.97;42.40;95929.03;10487806;28;2067;-77
2022/06/16 19:22:01;;;;;;;;;;;24.00;86.50;;;22.86;42.90;95936.13;10494399;28;1848;-77
2022/06/16 19:27:04;;;;;;;;;;;23.90;87.20;;;22.80;43.03;95945.75;10486919;28;1879;-74
2022/06/16 19:32:07;;;;;;;;;;;23.80;87.40;;;22.58;44.11;95961.53;10472001;28;2037;-74
2022/06/16 19:37:10;;;;;;;;;;;23.60;88.10;;;22.39;44.73;95969.56;10470365;28;1978;-74
2022/06/16 19:42:14;;;;;;;;;;;23.40;88.60;;;22.32;44.89;95988.50;10474994;28;1884;-75
2022/06/16 19:52:43;;;;;;;;;;;23.00;89.40;;;21.83;45.99;95997.50;10433976;28;1962;-75
2022/06/16 19:57:47;;;;;;;;;;;22.90;94.20;;;21.62;46.91;96006.91;10474761;28;1989;-74
2022/06/16 20:02:53;;;;;;;;;;;22.70;90.60;;;21.64;46.68;96016.41;10467238;28;2013;-75
2022/06/16 20:07:58;;;;;;;;;;;22.70;90.70;;;21.57;46.37;96021.63;10474996;28;1895;-73
2022/06/16 20:13:01;;;;;;;;;;;22.50;90.50;;;21.56;45.88;96025.47;10471632;28;1921;-75
2022/06/16 20:18:07;;;;;;;;;;;22.50;90.10;;;21.31;46.41;96017.22;10466373;28;1970;-75
2022/06/16 20:23:15;;;;;;;;;;;22.40;90.20;;;21.25;45.89;96026.72;10468788;28;1998;-75
2022/06/16 20:28:18;;;;;;;;;;;22.30;90.00;;;21.11;46.69;96028.13;10474197;28;1919;-76
2022/06/16 20:33:21;;;;;;;;;;;22.10;90.60;;;21.07;45.20;96025.28;10469670;28;2077;-74
2022/06/16 20:38:24;;;;;;;;;;;22.00;89.20;;;21.07;44.41;96024.47;10464713;28;1959;-74
2022/06/16 20:43:27;;;;;;;;;;;22.00;99.20;;;20.89;45.50;96019.16;10473298;28;2044;-75
2022/06/16 20:48:29;;;;;;;;;;;21.90;89.10;;;20.75;45.11;96021.34;10479014;28;2012;-74
2022/06/16 20:53:32;;;;;;;;;;;21.70;88.70;;;20.87;45.32;96020.63;10481033;28;1896;-79
2022/06/16 21:03:56;;;;;;;;;;;21.70;87.80;;;20.77;44.27;96027.28;10470418;28;1971;-79
2022/06/16 21:08:59;;;;;;;;;;;21.70;88.00;;;20.63;45.19;96040.38;10478050;28;1918;-77
2022/06/16 21:14:02;;;;;;;;;;;21.60;88.30;;;20.48;45.38;96039.81;10471166;28;1928;-78
2022/06/16 21:19:05;;;;;;;;;;;21.50;88.70;;;20.42;45.75;96043.88;10473366;28;1967;-78
2022/06/16 21:24:07;;;;;;;;;;;21.40;88.90;;;20.18;46.98;96044.47;10475198;28;2115;-78
2022/06/16 21:29:10;;;;;;;;;;;21.30;90.10;;;20.04;47.21;96041.16;10471807;28;2003;-78
2022/06/16 21:34:13;;;;;;;;;;;21.10;90.30;;;20.03;48.08;96055.09;10473449;28;2010;-78
2022/06/16 21:39:17;;;;;;;;;;;21.00;91.20;;;19.93;48.31;96067.19;10477045;28;1978;-78
2022/06/16 21:44:20;;;;;;;;;;;20.90;91.40;;;19.87;48.97;96058.38;10483704;28;2052;-78
2022/06/16 21:49:28;;;;;;;;;;;20.90;92.50;;;19.79;48.89;96067.41;10478153;28;2006;-78
2022/06/16 21:54:32;;;;;;;;;;;20.70;92.50;;;19.78;49.97;96084.06;10484892;28;1892;-76
2022/06/16 21:59:36;;;;;;;;;;;20.70;93.50;;;20.02;48.47;96067.94;10528863;28;1888;-78
2022/06/16 22:04:41;;;;;;;;;;;20.70;92.70;;;19.79;49.05;96072.84;10486482;28;1938;-78
2022/06/16 22:09:45;;;;;;;;;;;20.70;92.50;;;19.68;48.94;96074.31;10482506;28;2033;-78
2022/06/16 22:20:09;;;;;;;;;;;20.50;93.00;;;19.53;51.30;96085.69;10477317;28;1825;-77
2022/06/16 22:25:12;;;;;;;;;;;20.50;93.90;;;19.39;51.12;96088.59;10472390;28;1931;-78
2022/06/16 22:30:15;;;;;;;;;;;20.40;94.00;;;19.28;51.63;96096.31;10482325;28;1910;-78
2022/06/16 22:35:21;;;;;;;;;;;20.20;94.50;;;19.30;52.79;96102.25;10477921;28;1892;-79
2022/06/16 22:40:27;;;;;;;;;;;20.20;95.60;;;19.21;52.07;96112.31;10480344;28;1946;-78
2022/06/16 22:45:30;;;;;;;;;;;20.10;95.30;;;19.19;53.58;96106.41;10472953;28;2218;-78
2022/06/16 22:50:33;;;;;;;;;;;20.10;96.10;;;19.13;53.87;96107.69;10482047;28;1987;-78
2022/06/16 23:00:57;;;;;;;;;;;20.00;96.30;;;18.97;53.89;96109.28;10489814;28;1941;-78
2022/06/16 23:06:00;;;;;;;;;;;19.90;96.70;;;18.85;54.07;96124.31;10474872;28;1973;-79
2022/06/16 23:11:03;;;;;;;;;;;19.80;96.60;;;18.80;54.18;96116.31;10484897;28;1988;-78
2022/06/16 23:16:07;;;;;;;;;;;19.70;96.90;;;18.80;55.27;96127.19;10475678;28;2091;-78
2022/06/16 23:21:10;;;;;;;;;;;19.60;97.60;;;18.69;55.73;96125.88;10480570;28;1983;-78
2022/06/16 23:26:13;;;;;;;;;;;19.60;97.70;;;18.59;56.14;96115.28;10480901;28;2017;-78
2022/06/16 23:31:17;;;;;;;;;;;19.50;97.90;;;18.52;56.53;96125.81;10481826;28;1981;-78
2022/06/16 23:36:19;;;;;;;;;;;19.50;98.40;;;18.48;56.44;96130.28;10479297;28;2045;-78
2022/06/16 23:41:23;;;;;;;;;;;19.40;98.30;;;18.37;57.49;96125.09;10477880;28;1984;-78
2022/06/16 23:46:26;;;;;;;;;;;19.30;99.20;;;18.34;58.31;96125.75;10468217;28;1928;-78
2022/06/16 23:51:30;;;;;;;;;;;19.20;99.80;;;18.21;58.78;96132.09;10481518;28;2034;-77
2022/06/16 23:56:33;;;;;;;;;;;19.20;99.70;;;18.25;59.31;96135.78;10475626;28;1875;-79
